createdAt,value
2017-11-29T00:01:59.681Z,99286.74
2017-11-29T00:04:27.075Z,99290.07
2017-11-29T00:06:54.479Z,99288.37
2017-11-29T00:09:21.871Z,99288.98
2017-11-29T00:11:49.272Z,99284.11
2017-11-29T00:14:16.654Z,99279.42
2017-11-29T00:16:44.067Z,99283.47
2017-11-29T00:19:11.456Z,99280.94
2017-11-29T00:21:38.857Z,99279.84
2017-11-29T00:24:06.255Z,99279.91
2017-11-29T00:26:33.644Z,99273.12
2017-11-29T00:29:01.037Z,99274.22
2017-11-29T00:31:28.434Z,99274.02
2017-11-29T00:33:55.807Z,99271.98
2017-11-29T00:36:23.219Z,99273.31
2017-11-29T00:38:50.623Z,99274.74
2017-11-29T00:41:18.028Z,99273.30
2017-11-29T00:43:45.420Z,99276.97
2017-11-29T00:46:13.003Z,99275.23
2017-11-29T00:48:40.400Z,99272.59
2017-11-29T00:51:07.796Z,99274.84
2017-11-29T00:53:35.188Z,99273.61
2017-11-29T00:56:02.588Z,99270.96
2017-11-29T00:58:29.990Z,99271.59
2017-11-29T01:00:57.385Z,99269.64
2017-11-29T01:03:24.777Z,99267.70
2017-11-29T01:05:52.183Z,99272.50
2017-11-29T01:08:19.584Z,99276.16
2017-11-29T01:10:46.987Z,99275.64
2017-11-29T01:13:14.391Z,99277.48
2017-11-29T01:15:41.787Z,99275.73
2017-11-29T01:18:09.177Z,99277.36
2017-11-29T01:20:36.564Z,99275.74
2017-11-29T01:23:03.959Z,99277.48
2017-11-29T01:25:31.370Z,99276.95
2017-11-29T01:27:58.760Z,99270.95
2017-11-29T01:30:26.146Z,99272.08
2017-11-29T01:32:53.548Z,99279.59
2017-11-29T01:35:20.944Z,99279.81
2017-11-29T01:37:48.331Z,99276.25
2017-11-29T01:40:15.719Z,99277.97
2017-11-29T01:42:43.109Z,99277.25
2017-11-29T01:45:10.539Z,99276.14
2017-11-29T01:47:37.952Z,99274.41
2017-11-29T01:50:05.358Z,99279.20
2017-11-29T01:52:32.752Z,99273.20
2017-11-29T01:55:00.133Z,99274.92
2017-11-29T01:57:27.551Z,99271.77
2017-11-29T01:59:54.958Z,99271.95
2017-11-29T02:02:22.347Z,99270.33
2017-11-29T02:04:49.763Z,99265.05
2017-11-29T02:07:17.200Z,99272.27
2017-11-29T02:09:44.608Z,99272.59
2017-11-29T02:12:11.987Z,99273.09
2017-11-29T02:14:39.386Z,99279.70
2017-11-29T02:17:06.771Z,99274.82
2017-11-29T02:19:34.160Z,99273.98
2017-11-29T02:22:01.567Z,99272.89
2017-11-29T02:24:28.978Z,99271.92
2017-11-29T02:26:56.363Z,99272.78
2017-11-29T02:29:23.764Z,99271.16
2017-11-29T02:31:51.171Z,99269.84
2017-11-29T02:34:18.568Z,99267.69
2017-11-29T02:36:45.967Z,99267.91
2017-11-29T02:39:13.370Z,99270.41
2017-11-29T02:44:39.680Z,99259.08
2017-11-29T02:47:07.094Z,99261.50
2017-11-29T02:49:34.494Z,99260.55
2017-11-29T02:52:01.894Z,99255.50
2017-11-29T02:54:29.295Z,99255.27
2017-11-29T02:56:56.725Z,99256.21
2017-11-29T02:59:24.124Z,99258.06
2017-11-29T03:01:51.521Z,99248.18
2017-11-29T03:04:18.946Z,99255.72
2017-11-29T03:06:46.333Z,99252.67
2017-11-29T03:09:13.719Z,99253.08
2017-11-29T03:11:41.116Z,99250.22
2017-11-29T03:14:08.501Z,99254.59
2017-11-29T03:16:35.918Z,99253.42
2017-11-29T03:19:03.304Z,99242.52
2017-11-29T03:21:30.739Z,99251.55
2017-11-29T03:23:58.124Z,99253.80
2017-11-29T03:26:25.528Z,99249.92
2017-11-29T03:28:52.917Z,99248.70
2017-11-29T03:31:20.305Z,99247.08
2017-11-29T03:33:47.707Z,99248.30
2017-11-29T03:36:15.102Z,99240.89
2017-11-29T03:38:42.514Z,99242.59
2017-11-29T03:41:09.916Z,99244.74
2017-11-29T03:43:37.324Z,99243.23
2017-11-29T03:46:04.720Z,99243.12
2017-11-29T03:48:32.126Z,99245.16
2017-11-29T03:50:59.519Z,99239.64
2017-11-29T03:53:26.922Z,99232.96
2017-11-29T03:55:54.313Z,99229.91
2017-11-29T03:58:21.739Z,99237.61
2017-11-29T04:00:49.136Z,99238.84
2017-11-29T04:03:16.551Z,99237.42
2017-11-29T04:05:43.935Z,99232.33
2017-11-29T04:08:11.328Z,99228.47
2017-11-29T04:10:38.736Z,99226.20
2017-11-29T04:13:06.127Z,99227.94
2017-11-29T04:15:33.520Z,99227.11
2017-11-29T04:18:00.916Z,99227.52
2017-11-29T04:20:28.338Z,99227.62
2017-11-29T04:22:55.762Z,99227.32
2017-11-29T04:25:23.158Z,99232.67
2017-11-29T04:27:50.534Z,99219.39
2017-11-29T04:30:17.979Z,99217.84
2017-11-29T04:32:45.357Z,99223.77
2017-11-29T04:35:12.764Z,99221.12
2017-11-29T04:37:40.179Z,99230.35
2017-11-29T04:40:07.561Z,99233.78
2017-11-29T04:42:34.956Z,99231.55
2017-11-29T04:45:02.352Z,99231.55
2017-11-29T04:47:29.793Z,99226.47
2017-11-29T04:49:57.184Z,99237.45
2017-11-29T04:52:24.643Z,99240.21
2017-11-29T04:54:52.044Z,99236.25
2017-11-29T04:57:19.433Z,99238.89
2017-11-29T04:59:46.849Z,99237.66
2017-11-29T05:02:14.978Z,99240.13
2017-11-29T05:04:42.377Z,99240.02
2017-11-29T05:07:09.780Z,99244.39
2017-11-29T05:09:37.172Z,99239.71
2017-11-29T05:12:04.575Z,99240.93
2017-11-29T05:14:31.976Z,99245.00
2017-11-29T05:16:59.403Z,99238.09
2017-11-29T05:19:26.800Z,99234.02
2017-11-29T05:21:54.188Z,99238.61
2017-11-29T05:24:21.592Z,99244.26
2017-11-29T05:26:48.982Z,99236.73
2017-11-29T05:29:16.416Z,99240.98
2017-11-29T05:31:43.828Z,99243.12
2017-11-29T05:34:11.210Z,99239.27
2017-11-29T05:36:38.610Z,99244.59
2017-11-29T05:39:05.995Z,99245.83
2017-11-29T05:41:33.404Z,99242.47
2017-11-29T05:44:00.808Z,99241.56
2017-11-29T05:46:28.213Z,99243.98
2017-11-29T05:48:55.670Z,99236.47
2017-11-29T05:51:23.080Z,99240.41
2017-11-29T05:53:50.469Z,99241.43
2017-11-29T05:56:17.884Z,99244.77
2017-11-29T05:58:45.276Z,99246.48
2017-11-29T06:01:12.693Z,99246.67
2017-11-29T06:03:40.077Z,99247.56
2017-11-29T06:06:07.480Z,99249.70
2017-11-29T06:08:34.891Z,99255.86
2017-11-29T06:11:02.292Z,99250.38
2017-11-29T06:13:29.703Z,99247.30
2017-11-29T06:15:57.114Z,99251.38
2017-11-29T06:18:24.505Z,99255.44
2017-11-29T06:20:51.923Z,99256.63
2017-11-29T06:23:19.327Z,99253.87
2017-11-29T06:25:46.740Z,99251.94
2017-11-29T06:28:14.150Z,99254.06
2017-11-29T06:30:41.536Z,99257.91
2017-11-29T06:33:08.948Z,99255.47
2017-11-29T06:35:36.355Z,99260.57
2017-11-29T06:38:03.777Z,99266.67
2017-11-29T06:40:31.187Z,99256.97
2017-11-29T06:42:58.601Z,99258.78
2017-11-29T06:45:25.993Z,99265.28
2017-11-29T06:47:53.411Z,99265.36
2017-11-29T06:50:20.849Z,99266.30
2017-11-29T06:52:48.277Z,99266.27
2017-11-29T06:55:15.683Z,99270.11
2017-11-29T06:57:43.129Z,99271.32
2017-11-29T07:00:10.503Z,99276.02
2017-11-29T07:02:37.913Z,99273.48
2017-11-29T07:05:05.324Z,99271.16
2017-11-29T07:07:32.703Z,99281.81
2017-11-29T07:10:00.096Z,99281.41
2017-11-29T07:12:27.510Z,99286.37
2017-11-29T07:14:54.912Z,99290.67
2017-11-29T07:17:22.316Z,99291.59
2017-11-29T07:19:49.730Z,99293.49
2017-11-29T07:22:17.153Z,99290.53
2017-11-29T07:24:44.546Z,99301.89
2017-11-29T07:27:11.995Z,99305.13
2017-11-29T07:29:39.384Z,99307.66
2017-11-29T07:32:06.834Z,99306.34
2017-11-29T07:34:34.269Z,99307.45
2017-11-29T07:37:01.646Z,99305.00
2017-11-29T07:39:29.065Z,99305.11
2017-11-29T07:41:56.497Z,99305.41
2017-11-29T07:44:23.892Z,99301.88
2017-11-29T07:46:51.292Z,99303.10
2017-11-29T07:49:18.685Z,99308.22
2017-11-29T07:51:46.113Z,99303.12
2017-11-29T07:54:13.507Z,99303.12
2017-11-29T07:56:40.919Z,99301.91
2017-11-29T07:59:08.348Z,99306.59
2017-11-29T08:01:35.771Z,99312.45
2017-11-29T08:04:03.197Z,99314.34
2017-11-29T08:06:30.572Z,99314.42
2017-11-29T08:08:57.977Z,99318.45
2017-11-29T08:11:25.441Z,99321.59
2017-11-29T08:13:52.852Z,99316.59
2017-11-29T08:16:20.256Z,99320.83
2017-11-29T08:18:47.663Z,99315.95
2017-11-29T08:21:15.077Z,99316.54
2017-11-29T08:23:42.496Z,99318.66
2017-11-29T08:26:09.872Z,99326.88
2017-11-29T08:28:37.306Z,99323.55
2017-11-29T08:31:04.705Z,99321.94
2017-11-29T08:33:32.108Z,99317.41
2017-11-29T08:35:59.540Z,99315.48
2017-11-29T08:38:26.936Z,99323.17
2017-11-29T08:40:54.351Z,99319.84
2017-11-29T08:43:21.764Z,99326.97
2017-11-29T08:45:49.156Z,99329.94
2017-11-29T08:48:16.583Z,99331.16
2017-11-29T08:50:43.991Z,99338.06
2017-11-29T08:53:11.415Z,99333.32
2017-11-29T08:55:38.853Z,99338.38
2017-11-29T08:58:06.249Z,99342.88
2017-11-29T09:00:33.655Z,99341.06
2017-11-29T09:03:01.072Z,99341.48
2017-11-29T09:05:28.464Z,99340.95
2017-11-29T09:07:55.862Z,99343.52
2017-11-29T09:10:23.285Z,99346.27
2017-11-29T09:12:50.716Z,99345.67
2017-11-29T09:15:18.122Z,99351.69
2017-11-29T09:17:45.527Z,99346.20
2017-11-29T09:20:12.944Z,99348.05
2017-11-29T09:22:40.344Z,99354.27
2017-11-29T09:25:07.744Z,99355.02
2017-11-29T09:27:35.160Z,99356.45
2017-11-29T09:30:02.592Z,99353.34
2017-11-29T09:32:30.004Z,99353.58
2017-11-29T09:34:57.407Z,99351.78
2017-11-29T09:37:24.792Z,99354.17
2017-11-29T09:39:52.181Z,99354.04
2017-11-29T09:42:19.604Z,99352.75
2017-11-29T09:44:47.016Z,99351.22
2017-11-29T09:47:14.411Z,99353.64
2017-11-29T09:49:41.786Z,99352.08
2017-11-29T09:52:09.197Z,99353.91
2017-11-29T09:54:36.599Z,99355.99
2017-11-29T09:57:03.987Z,99353.66
2017-11-29T09:59:31.395Z,99353.52
2017-11-29T10:01:58.798Z,99354.38
2017-11-29T10:04:26.181Z,99351.16
2017-11-29T10:06:53.601Z,99351.98
2017-11-29T10:09:21.024Z,99348.27
2017-11-29T10:11:48.432Z,99348.83
2017-11-29T10:14:15.840Z,99349.73
2017-11-29T10:16:43.247Z,99349.55
2017-11-29T10:19:10.661Z,99348.45
2017-11-29T10:21:38.058Z,99343.53
2017-11-29T10:24:05.436Z,99343.52
2017-11-29T10:26:32.838Z,99342.12
2017-11-29T10:29:00.236Z,99339.02
2017-11-29T10:31:27.635Z,99330.99
2017-11-29T10:33:55.035Z,99332.51
2017-11-29T10:36:22.447Z,99323.95
2017-11-29T10:38:49.844Z,99323.24
2017-11-29T10:41:17.238Z,99319.25
2017-11-29T10:43:44.676Z,99321.91
2017-11-29T10:46:12.052Z,99324.30
2017-11-29T10:48:39.464Z,99320.47
2017-11-29T10:51:06.857Z,99319.72
2017-11-29T10:53:34.304Z,99319.43
2017-11-29T10:56:01.736Z,99316.07
2017-11-29T10:58:29.116Z,99313.48
2017-11-29T11:00:56.523Z,99311.89
2017-11-29T11:03:23.952Z,99313.64
2017-11-29T11:05:51.357Z,99313.41
2017-11-29T11:08:18.769Z,99310.44
2017-11-29T11:10:46.170Z,99304.66
2017-11-29T11:13:13.848Z,99305.63
2017-11-29T11:15:41.254Z,99313.82
2017-11-29T11:18:08.685Z,99303.59
2017-11-29T11:20:36.072Z,99307.76
2017-11-29T11:23:03.468Z,99306.43
2017-11-29T11:25:31.395Z,99307.62
2017-11-29T11:27:58.815Z,99310.88
2017-11-29T11:30:26.211Z,99305.38
2017-11-29T11:32:53.657Z,99306.42
2017-11-29T11:35:21.052Z,99299.73
2017-11-29T11:37:48.445Z,99301.10
2017-11-29T11:40:15.864Z,99300.42
2017-11-29T11:42:43.260Z,99299.02
2017-11-29T11:45:10.677Z,99293.02
2017-11-29T11:47:38.121Z,99295.16
2017-11-29T11:50:05.506Z,99295.09
2017-11-29T11:52:32.904Z,99288.06
2017-11-29T11:55:00.302Z,99289.81
2017-11-29T11:57:27.725Z,99286.12
2017-11-29T11:59:55.111Z,99285.54
2017-11-29T12:02:22.555Z,99285.05
2017-11-29T12:04:49.936Z,99277.27
2017-11-29T12:07:17.347Z,99273.75
2017-11-29T12:09:44.739Z,99279.90
2017-11-29T12:12:12.161Z,99275.71
2017-11-29T12:14:39.567Z,99277.56
2017-11-29T12:17:06.960Z,99272.31
2017-11-29T12:19:34.352Z,99269.90
2017-11-29T12:22:01.794Z,99269.48
2017-11-29T12:24:29.228Z,99276.09
2017-11-29T12:26:56.629Z,99269.91
2017-11-29T12:29:24.017Z,99267.67
2017-11-29T12:31:51.421Z,99265.01
2017-11-29T12:34:18.828Z,99261.82
2017-11-29T12:36:46.231Z,99266.60
2017-11-29T12:39:13.639Z,99267.23
2017-11-29T12:41:41.044Z,99268.17
2017-11-29T12:44:08.444Z,99263.60
2017-11-29T12:46:36.347Z,99267.61
2017-11-29T12:49:15.497Z,99274.28
2017-11-29T12:51:42.918Z,99274.57
2017-11-29T12:54:10.320Z,99276.33
2017-11-29T12:56:37.730Z,99271.34
2017-11-29T12:59:05.129Z,99271.20
2017-11-29T13:01:32.529Z,99275.00
2017-11-29T13:03:59.949Z,99273.07
2017-11-29T13:06:27.331Z,99274.84
2017-11-29T13:08:54.786Z,99273.33
2017-11-29T13:11:22.181Z,99269.20
2017-11-29T13:13:49.606Z,99270.53
2017-11-29T13:16:16.998Z,99273.10
2017-11-29T13:18:44.388Z,99270.63
2017-11-29T13:21:11.789Z,99273.01
2017-11-29T13:23:39.259Z,99278.13
2017-11-29T13:26:06.647Z,99271.66
2017-11-29T13:28:34.035Z,99269.55
2017-11-29T13:31:01.485Z,99273.02
2017-11-29T13:33:28.887Z,99272.47
2017-11-29T13:35:56.284Z,99265.03
2017-11-29T13:38:23.671Z,99269.99
2017-11-29T13:40:51.056Z,99264.94
2017-11-29T13:43:18.444Z,99262.84
2017-11-29T13:45:45.840Z,99261.44
2017-11-29T13:48:13.228Z,99267.92
2017-11-29T13:50:40.606Z,99263.35
2017-11-29T13:53:08.008Z,99262.47
2017-11-29T13:55:35.396Z,99264.58
2017-11-29T13:58:02.795Z,99268.87
2017-11-29T14:00:30.209Z,99265.63
2017-11-29T14:02:57.588Z,99264.38
2017-11-29T14:05:24.984Z,99271.16
2017-11-29T14:07:52.372Z,99274.89
2017-11-29T14:10:19.768Z,99275.41
2017-11-29T14:12:49.160Z,99272.41
2017-11-29T14:15:16.551Z,99274.86
2017-11-29T14:17:43.944Z,99275.89
2017-11-29T14:20:11.362Z,99274.50
2017-11-29T14:22:38.752Z,99273.37
2017-11-29T14:25:06.148Z,99277.14
2017-11-29T14:27:33.546Z,99279.16
2017-11-29T14:30:00.936Z,99282.39
2017-11-29T14:32:28.332Z,99282.03
2017-11-29T14:34:55.716Z,99280.79
2017-11-29T14:37:23.106Z,99284.64
2017-11-29T14:39:50.499Z,99278.98
2017-11-29T14:42:17.896Z,99284.61
2017-11-29T14:44:45.284Z,99280.44
2017-11-29T14:47:12.677Z,99289.75
2017-11-29T14:49:40.071Z,99288.82
2017-11-29T14:52:07.476Z,99288.95
2017-11-29T14:54:34.875Z,99290.19
2017-11-29T14:57:02.264Z,99290.69
2017-11-29T14:59:29.669Z,99296.39
2017-11-29T15:01:57.053Z,99297.17
2017-11-29T15:04:24.437Z,99294.64
2017-11-29T15:06:51.839Z,99293.50
2017-11-29T15:09:19.228Z,99294.74
2017-11-29T15:11:46.615Z,99290.36
2017-11-29T15:14:14.009Z,99291.45
2017-11-29T15:16:41.401Z,99293.08
2017-11-29T15:19:08.792Z,99297.88
2017-11-29T15:21:36.182Z,99292.89
2017-11-29T15:24:03.587Z,99294.62
2017-11-29T15:26:30.974Z,99300.12
2017-11-29T15:28:58.363Z,99297.47
2017-11-29T15:31:25.751Z,99291.68
2017-11-29T15:33:53.144Z,99291.58
2017-11-29T15:36:20.540Z,99294.94
2017-11-29T15:38:47.937Z,99296.16
2017-11-29T15:41:15.371Z,99300.55
2017-11-29T15:43:42.749Z,99305.53
2017-11-29T15:46:10.160Z,99305.64
2017-11-29T15:48:37.552Z,99308.91
2017-11-29T15:51:04.944Z,99312.57
2017-11-29T15:53:32.340Z,99314.20
2017-11-29T15:55:59.750Z,99315.10
2017-11-29T15:58:27.227Z,99320.48
2017-11-29T16:00:54.605Z,99322.19
2017-11-29T16:03:22.011Z,99319.94
2017-11-29T16:05:49.404Z,99320.23
2017-11-29T16:08:16.811Z,99320.16
2017-11-29T16:10:44.218Z,99317.95
2017-11-29T16:13:11.620Z,99315.11
2017-11-29T16:15:39.002Z,99310.23
2017-11-29T16:18:06.420Z,99311.64
2017-11-29T16:20:33.835Z,99306.84
2017-11-29T16:23:01.228Z,99308.56
2017-11-29T16:25:28.624Z,99309.38
2017-11-29T16:27:56.032Z,99318.13
2017-11-29T16:30:23.436Z,99317.80
2017-11-29T16:32:50.845Z,99320.52
2017-11-29T16:35:18.254Z,99327.97
2017-11-29T16:37:45.661Z,99328.08
2017-11-29T16:40:13.064Z,99319.55
2017-11-29T16:42:40.448Z,99324.72
2017-11-29T16:45:07.866Z,99330.30
2017-11-29T16:47:35.267Z,99328.16
2017-11-29T16:50:02.665Z,99326.80
2017-11-29T16:52:30.057Z,99326.78
2017-11-29T16:54:57.451Z,99322.64
2017-11-29T16:57:24.854Z,99320.41
2017-11-29T16:59:52.250Z,99315.63
2017-11-29T17:02:19.642Z,99324.97
2017-11-29T17:04:47.034Z,99321.50
2017-11-29T17:07:14.441Z,99328.20
2017-11-29T17:09:41.829Z,99331.98
2017-11-29T17:12:09.236Z,99332.70
2017-11-29T17:14:40.191Z,99327.83
2017-11-29T17:17:07.599Z,99326.09
2017-11-29T17:19:34.988Z,99330.70
2017-11-29T17:22:02.397Z,99331.55
2017-11-29T17:24:29.791Z,99333.27
2017-11-29T17:26:57.187Z,99340.80
2017-11-29T17:29:24.583Z,99342.30
2017-11-29T17:31:51.981Z,99341.78
2017-11-29T17:34:19.367Z,99343.90
2017-11-29T17:36:46.760Z,99338.44
2017-11-29T17:39:14.152Z,99339.73
2017-11-29T17:41:41.555Z,99337.82
2017-11-29T17:44:08.964Z,99343.80
2017-11-29T17:46:37.224Z,99341.33
2017-11-29T17:49:04.615Z,99340.10
2017-11-29T17:51:32.016Z,99344.86
2017-11-29T17:53:59.404Z,99343.80
2017-11-29T17:56:26.827Z,99348.95
2017-11-29T17:58:54.219Z,99352.41
2017-11-29T18:01:21.604Z,99349.77
2017-11-29T18:03:48.995Z,99349.84
2017-11-29T18:06:16.391Z,99350.46
2017-11-29T18:08:43.825Z,99349.64
2017-11-29T18:11:11.177Z,99354.92
2017-11-29T18:13:38.576Z,99359.30
2017-11-29T18:16:05.974Z,99356.34
2017-11-29T18:18:33.365Z,99357.07
2017-11-29T18:21:00.752Z,99359.60
2017-11-29T18:23:28.149Z,99363.66
2017-11-29T18:25:55.533Z,99371.27
2017-11-29T18:28:22.943Z,99364.09
2017-11-29T18:30:50.350Z,99369.19
2017-11-29T18:33:17.744Z,99368.79
2017-11-29T18:35:45.136Z,99370.17
2017-11-29T18:38:12.527Z,99368.86
2017-11-29T18:40:39.937Z,99373.37
2017-11-29T18:43:07.363Z,99370.55
2017-11-29T18:45:34.751Z,99376.20
2017-11-29T18:48:02.146Z,99374.29
2017-11-29T18:50:29.531Z,99374.11
2017-11-29T18:52:56.934Z,99381.92
2017-11-29T18:55:24.331Z,99386.30
2017-11-29T18:57:51.739Z,99379.88
2017-11-29T19:00:19.128Z,99386.60
2017-11-29T19:02:46.522Z,99386.80
2017-11-29T19:05:13.912Z,99386.60
2017-11-29T19:07:41.328Z,99386.78
2017-11-29T19:10:08.721Z,99387.48
2017-11-29T19:12:36.107Z,99382.11
2017-11-29T19:15:03.508Z,99389.78
2017-11-29T19:17:30.902Z,99383.55
2017-11-29T19:19:58.321Z,99389.22
2017-11-29T19:22:25.719Z,99383.51
2017-11-29T19:24:53.119Z,99392.02
2017-11-29T19:27:20.505Z,99393.97
2017-11-29T19:29:47.907Z,99391.33
2017-11-29T19:32:15.291Z,99399.45
2017-11-29T19:34:42.680Z,99395.48
2017-11-29T19:37:10.079Z,99399.94
2017-11-29T19:39:37.471Z,99397.09
2017-11-29T19:42:04.870Z,99396.16
2017-11-29T19:44:36.133Z,99395.93
2017-11-29T19:47:03.545Z,99401.22
2017-11-29T19:49:30.943Z,99400.33
2017-11-29T19:51:58.433Z,99393.53
2017-11-29T19:54:25.820Z,99391.70
2017-11-29T19:56:53.216Z,99397.75
2017-11-29T19:59:20.636Z,99404.00
2017-11-29T20:01:49.972Z,99394.47
2017-11-29T20:04:17.378Z,99400.84
2017-11-29T20:06:44.841Z,99403.80
2017-11-29T20:09:12.297Z,99403.00
2017-11-29T20:11:39.706Z,99400.47
2017-11-29T20:14:07.115Z,99405.30
2017-11-29T20:16:35.032Z,99400.44
2017-11-29T20:19:03.338Z,99406.72
2017-11-29T20:21:30.736Z,99407.03
2017-11-29T20:23:58.246Z,99402.39
2017-11-29T20:26:26.576Z,99408.11
2017-11-29T20:28:54.991Z,99404.97
2017-11-29T20:31:22.399Z,99399.73
2017-11-29T20:33:50.591Z,99398.39
2017-11-29T20:36:18.001Z,99403.72
2017-11-29T20:38:45.401Z,99398.77
2017-11-29T20:41:12.800Z,99405.04
2017-11-29T20:43:40.263Z,99406.45
2017-11-29T20:46:07.680Z,99395.36
2017-11-29T20:48:35.081Z,99410.09
2017-11-29T20:51:02.484Z,99409.70
2017-11-29T20:53:29.893Z,99409.99
2017-11-29T20:55:57.288Z,99409.22
2017-11-29T20:58:24.684Z,99408.55
2017-11-29T21:00:52.084Z,99407.88
2017-11-29T21:03:19.504Z,99405.16
2017-11-29T21:05:46.912Z,99403.12
2017-11-29T21:08:21.840Z,99403.31
2017-11-29T21:10:49.236Z,99398.77
2017-11-29T21:13:16.628Z,99401.81
2017-11-29T21:15:44.032Z,99398.78
2017-11-29T21:18:11.437Z,99403.98
2017-11-29T21:20:38.837Z,99397.31
2017-11-29T21:23:06.232Z,99397.05
2017-11-29T21:25:33.643Z,99400.36
2017-11-29T21:28:01.036Z,99402.31
2017-11-29T21:30:28.428Z,99398.58
2017-11-29T21:32:55.836Z,99400.53
2017-11-29T21:35:23.239Z,99399.48
2017-11-29T21:37:50.627Z,99396.97
2017-11-29T21:40:18.019Z,99398.23
2017-11-29T21:42:45.416Z,99398.96
2017-11-29T21:45:12.821Z,99405.75
2017-11-29T21:47:40.208Z,99403.94
2017-11-29T21:50:07.612Z,99408.28
2017-11-29T21:52:35.004Z,99411.36
2017-11-29T21:55:02.410Z,99406.67
2017-11-29T21:57:29.800Z,99409.82
2017-11-29T21:59:57.200Z,99402.05
2017-11-29T22:02:24.601Z,99400.83
2017-11-29T22:04:51.997Z,99399.25
2017-11-29T22:07:19.400Z,99393.69
2017-11-29T22:09:46.792Z,99400.90
2017-11-29T22:12:14.575Z,99405.36
2017-11-29T22:14:41.980Z,99403.14
2017-11-29T22:17:09.375Z,99395.27
2017-11-29T22:19:36.779Z,99406.35
2017-11-29T22:22:04.177Z,99406.97
2017-11-29T22:24:31.571Z,99405.39
2017-11-29T22:26:58.967Z,99406.52
2017-11-29T22:29:26.364Z,99409.42
2017-11-29T22:31:53.752Z,99411.67
2017-11-29T22:34:21.204Z,99406.69
2017-11-29T22:36:48.563Z,99414.58
2017-11-29T22:39:15.965Z,99416.16
2017-11-29T22:41:43.372Z,99417.51
2017-11-29T22:44:10.761Z,99413.67
2017-11-29T22:46:38.156Z,99415.72
2017-11-29T22:49:05.556Z,99417.50
2017-11-29T22:51:32.964Z,99412.02
2017-11-29T22:54:00.365Z,99417.23
2017-11-29T22:56:27.780Z,99413.66
2017-11-29T22:58:55.180Z,99416.96
2017-11-29T23:01:22.577Z,99416.86
2017-11-29T23:03:49.973Z,99410.06
2017-11-29T23:06:17.376Z,99411.47
2017-11-29T23:08:44.772Z,99408.71
2017-11-29T23:11:12.167Z,99413.09
2017-11-29T23:13:39.563Z,99410.42
2017-11-29T23:16:06.963Z,99414.67
2017-11-29T23:18:34.380Z,99410.27
2017-11-29T23:21:01.780Z,99414.67
2017-11-29T23:23:29.179Z,99417.45
2017-11-29T23:25:56.594Z,99415.67
2017-11-29T23:28:23.989Z,99414.33
2017-11-29T23:30:51.393Z,99416.72
2017-11-29T23:33:18.791Z,99409.61
2017-11-29T23:35:46.208Z,99410.66
2017-11-29T23:38:13.595Z,99415.33
2017-11-29T23:40:41.021Z,99410.11
2017-11-29T23:43:08.412Z,99406.63
2017-11-29T23:45:35.803Z,99407.72
2017-11-29T23:48:03.219Z,99404.13
2017-11-29T23:50:30.617Z,99407.95
2017-11-29T23:52:58.028Z,99407.43
2017-11-29T23:55:25.416Z,99409.52
2017-11-29T23:57:52.824Z,99402.70
